Time,TemperatureF,DewpointF,PressureIn,WindDirection,WindDirectionDegrees,WindSpeedMPH,WindSpeedGustMPH,Humidity,HourlyPrecipIn,Conditions,Clouds,dailyrainin,SoftwareType,DateUTC
2013-03-21 16:02:00,37.0,13.0,29.93,ENE,67,8.0,13.0,38,-99.99,,,-99.99,,2013-03-21 21:02:00,
2013-03-21 16:12:00,36.0,20.0,29.93,ENE,67,7.0,10.0,51,-99.99,,,-99.99,,2013-03-21 21:12:00,
2013-03-21 16:22:00,37.0,20.0,29.93,North,0,7.0,12.0,51,-99.99,,,-99.99,,2013-03-21 21:22:00,
2013-03-21 16:33:00,37.0,18.0,29.93,ENE,67,7.0,10.0,47,-99.99,,,-99.99,,2013-03-21 21:33:00,
2013-03-21 16:43:00,37.0,18.0,29.92,North,0,8.0,12.0,45,-99.99,,,-99.99,,2013-03-21 21:43:00,
2013-03-21 16:52:00,37.0,18.0,29.93,ENE,67,6.0,11.0,45,-99.99,,,-99.99,,2013-03-21 21:52:00,
2013-03-21 17:02:00,37.0,17.0,29.92,ENE,67,6.0,9.0,44,-99.99,,,-99.99,,2013-03-21 22:02:00,
2013-03-21 17:13:00,36.0,16.0,29.93,North,0,7.0,9.0,42,-99.99,,,-99.99,,2013-03-21 22:13:00,
2013-03-21 17:23:00,36.0,14.0,29.93,North,0,5.0,7.0,40,-99.99,,,-99.99,,2013-03-21 22:23:00,
2013-03-21 17:33:00,37.0,17.0,29.93,ENE,67,7.0,9.0,44,-99.99,,,-99.99,,2013-03-21 22:33:00,
2013-03-21 17:42:00,36.0,16.0,29.92,North,0,8.0,11.0,44,-99.99,,,-99.99,,2013-03-21 22:42:00,
2013-03-21 17:52:00,36.0,21.0,29.92,North,0,8.0,11.0,52,-99.99,,,-99.99,,2013-03-21 22:52:00,
2013-03-21 18:02:00,36.0,19.0,29.92,North,0,8.0,11.0,49,-99.99,,,-99.99,,2013-03-21 23:02:00,
2013-03-21 18:12:00,36.0,20.0,29.92,North,0,8.0,11.0,53,-99.99,,,-99.99,,2013-03-21 23:12:00,
2013-03-21 18:22:00,35.0,19.0,29.92,ENE,67,9.0,11.0,52,-99.99,,,-99.99,,2013-03-21 23:22:00,
2013-03-21 18:32:00,35.0,19.0,29.92,North,0,9.0,13.0,51,-99.99,,,-99.99,,2013-03-21 23:32:00,
2013-03-21 18:42:00,35.0,18.0,29.92,North,0,9.0,13.0,50,-99.99,,,-99.99,,2013-03-21 23:42:00,
2013-03-21 18:52:00,35.0,20.0,29.92,North,0,9.0,11.0,54,-99.99,,,-99.99,,2013-03-21 23:52:00,
2013-03-21 19:02:00,35.0,20.0,29.91,North,0,9.0,13.0,54,-99.99,,,-99.99,,2013-03-22 00:02:00,
2013-03-21 19:12:00,34.0,20.0,29.92,North,0,9.0,12.0,57,-99.99,,,-99.99,,2013-03-22 00:12:00,
2013-03-21 19:22:00,34.0,20.0,29.92,North,0,10.0,13.0,56,-99.99,,,-99.99,,2013-03-22 00:22:00,
2013-03-21 19:31:00,34.0,20.0,29.92,ENE,67,9.0,12.0,57,-99.99,,,-99.99,,2013-03-22 00:31:00,
2013-03-21 19:42:00,34.0,21.0,29.92,North,0,8.0,11.0,60,-99.99,,,-99.99,,2013-03-22 00:42:00,
2013-03-21 19:52:00,34.0,22.0,29.92,ENE,67,8.0,9.0,61,-99.99,,,-99.99,,2013-03-22 00:52:00,
2013-03-21 20:02:00,33.0,21.0,29.92,North,0,7.0,11.0,59,-99.99,,,-99.99,,2013-03-22 01:02:00,
2013-03-21 20:12:00,33.0,22.0,29.93,ENE,67,9.0,11.0,63,-99.99,,,-99.99,,2013-03-22 01:12:00,
2013-03-21 20:22:00,33.0,22.0,29.92,North,0,9.0,12.0,65,-99.99,,,-99.99,,2013-03-22 01:22:00,
2013-03-21 20:32:00,32.0,22.0,29.93,ENE,67,8.0,10.0,64,-99.99,,,-99.99,,2013-03-22 01:32:00,
2013-03-21 20:42:00,32.0,20.0,29.93,North,0,9.0,12.0,61,-99.99,,,-99.99,,2013-03-22 01:42:00,
2013-03-21 20:52:00,32.0,21.0,29.93,North,0,7.0,10.0,64,-99.99,,,-99.99,,2013-03-22 01:52:00,
2013-03-21 21:02:00,32.0,21.0,29.94,North,0,9.0,12.0,63,-99.99,,,-99.99,,2013-03-22 02:02:00,
2013-03-21 21:12:00,32.0,21.0,29.94,North,0,8.0,11.0,63,-99.99,,,-99.99,,2013-03-22 02:12:00,
2013-03-21 21:22:00,32.0,20.0,29.94,ENE,67,9.0,12.0,61,-99.99,,,-99.99,,2013-03-22 02:22:00,
2013-03-21 21:32:00,32.0,20.0,29.94,North,0,9.0,12.0,62,-99.99,,,-99.99,,2013-03-22 02:32:00,
2013-03-21 21:42:00,32.0,20.0,29.94,ENE,67,7.0,11.0,61,-99.99,,,-99.99,,2013-03-22 02:42:00,
2013-03-21 21:52:00,31.0,20.0,29.94,North,0,7.0,10.0,63,-99.99,,,-99.99,,2013-03-22 02:52:00,
2013-03-21 22:02:00,31.0,20.0,29.94,ESE,112,8.0,12.0,62,-99.99,,,-99.99,,2013-03-22 03:02:00,
2013-03-21 22:12:00,31.0,20.0,29.95,ESE,112,7.0,11.0,61,-99.99,,,-99.99,,2013-03-22 03:12:00,
2013-03-21 22:22:00,31.0,20.0,29.95,North,0,6.0,8.0,63,-99.99,,,-99.99,,2013-03-22 03:22:00,
2013-03-21 22:33:00,31.0,19.0,29.94,ESE,112,5.0,8.0,60,-99.99,,,-99.99,,2013-03-22 03:33:00,
2013-03-21 22:42:00,31.0,19.0,29.95,ESE,112,4.0,6.0,61,-99.99,,,-99.99,,2013-03-22 03:42:00,
2013-03-21 22:52:00,31.0,19.0,29.95,ESE,112,5.0,8.0,60,-99.99,,,-99.99,,2013-03-22 03:52:00,
2013-03-21 23:03:00,31.0,20.0,29.95,ESE,112,5.0,7.0,62,-99.99,,,-99.99,,2013-03-22 04:03:00,
2013-03-21 23:12:00,31.0,20.0,29.95,North,0,5.0,7.0,61,-99.99,,,-99.99,,2013-03-22 04:12:00,
2013-03-21 23:23:00,31.0,18.0,29.95,North,0,5.0,7.0,59,-99.99,,,-99.99,,2013-03-22 04:23:00,
2013-03-21 23:32:00,31.0,20.0,29.95,ESE,112,4.0,5.0,63,-99.99,,,-99.99,,2013-03-22 04:32:00,
2013-03-21 23:42:00,31.0,20.0,29.95,ESE,112,4.0,5.0,64,-99.99,,,-99.99,,2013-03-22 04:42:00,
2013-03-21 23:52:00,31.0,18.0,29.95,ESE,112,4.0,6.0,61,-99.99,,,-99.99,,2013-03-22 04:52:00,